Time;durP1;ratioP1;P1;durP2;ratioP2;P2;SDS_P1;SDS_P2;PMS_P1;PMS_P2;Temp;Humidity;BMP_temperature;BMP_pressure;BME280_temperature;BME280_humidity;BME280_pressure;Samples;Min_cycle;Max_cycle;Signal;HPM_P1;HPM_P2
2023/01/13 00:01:14;;;;;;;;;;;9.20;99.90;;;;;;5055683;28;19924;-67
2023/01/13 00:03:40;;;;;;;;;;;9.20;99.90;;;;;;5049426;28;20735;-66
2023/01/13 00:06:07;;;;;;;;;;;9.20;99.90;;;;;;5049900;28;19917;-67
2023/01/13 00:08:32;;;;;;;;;;;9.20;99.90;;;;;;5049925;28;19998;-66
2023/01/13 00:10:58;;;;;;;;;;;9.20;99.90;;;;;;5069277;28;20369;-66
2023/01/13 00:13:26;;;;;;;;;;;9.20;99.90;;;;;;5069091;28;19919;-66
2023/01/13 00:15:55;;;;;;;;;;;9.20;99.90;;;;;;5064715;28;19948;-66
2023/01/13 00:18:21;;;;;;;;;;;9.20;99.90;;;;;;5040762;28;19971;-66
2023/01/13 00:20:46;;;;;;;;;;;9.20;99.90;;;;;;5041822;28;19968;-66
2023/01/13 00:23:12;;;;;;;;;;;9.20;99.90;;;;;;5029041;28;19926;-66
2023/01/13 00:25:37;;;;;;;;;;;9.20;99.90;;;;;;5036821;28;19939;-66
2023/01/13 00:28:03;;;;;;;;;;;9.20;99.90;;;;;;5048761;28;19909;-66
2023/01/13 00:30:28;;;;;;;;;;;9.20;99.90;;;;;;5049157;28;19915;-67
2023/01/13 00:32:54;;;;;;;;;;;9.20;99.90;;;;;;5049109;28;20414;-66
2023/01/13 00:35:19;;;;;;;;;;;9.20;99.90;;;;;;5049367;28;20520;-66
2023/01/13 00:37:45;;;;;;;;;;;9.20;99.90;;;;;;5049130;28;20587;-66
2023/01/13 00:40:10;;;;;;;;;;;9.20;99.90;;;;;;5062408;28;19923;-66
2023/01/13 00:45:20;;;;;;;;;;;9.20;99.90;;;;;;5046042;28;19924;-66
2023/01/13 00:47:45;;;;;;;;;;;9.20;99.90;;;;;;5047779;28;19913;-67
2023/01/13 00:50:11;;;;;;;;;;;9.20;99.90;;;;;;5045311;28;19919;-66
2023/01/13 00:52:36;;;;;;;;;;;9.20;99.90;;;;;;5046812;28;19916;-66
2023/01/13 00:55:02;;;;;;;;;;;9.20;99.90;;;;;;5052349;28;20616;-67
2023/01/13 00:57:27;;;;;;;;;;;9.10;99.90;;;;;;5068500;28;19958;-66
2023/01/13 00:59:53;;;;;;;;;;;9.10;99.90;;;;;;5068649;28;19909;-66
2023/01/13 01:02:18;;;;;;;;;;;9.20;99.90;;;;;;5068546;28;19909;-67
2023/01/13 01:04:44;;;;;;;;;;;9.10;99.90;;;;;;5058539;28;20350;-66
2023/01/13 01:07:09;;;;;;;;;;;9.10;99.90;;;;;;5047780;28;19921;-66
2023/01/13 01:09:35;;;;;;;;;;;9.10;99.90;;;;;;5047937;28;19917;-67
2023/01/13 01:12:00;;;;;;;;;;;9.10;99.90;;;;;;5048125;28;20576;-66
2023/01/13 01:14:26;;;;;;;;;;;9.10;99.90;;;;;;5048092;28;19952;-66
2023/01/13 01:16:52;;;;;;;;;;;9.10;99.90;;;;;;5046810;28;19923;-67
2023/01/13 01:19:17;;;;;;;;;;;9.10;99.90;;;;;;5039090;28;19913;-66
2023/01/13 01:21:43;;;;;;;;;;;9.10;99.90;;;;;;5030158;28;19913;-67
2023/01/13 01:24:08;;;;;;;;;;;9.10;99.90;;;;;;5031824;28;19959;-66
2023/01/13 01:26:34;;;;;;;;;;;9.10;99.90;;;;;;5044370;28;19962;-67
2023/01/13 01:29:01;;;;;;;;;;;9.10;99.90;;;;;;5048102;28;19917;-67
2023/01/13 01:31:27;;;;;;;;;;;9.00;99.90;;;;;;5047812;28;19916;-66
2023/01/13 01:33:53;;;;;;;;;;;9.00;99.90;;;;;;5048119;28;19944;-66
2023/01/13 01:36:20;;;;;;;;;;;9.00;99.90;;;;;;5047765;28;20001;-66
2023/01/13 01:38:46;;;;;;;;;;;9.00;99.90;;;;;;5050218;28;19919;-66
2023/01/13 01:41:16;;;;;;;;;;;9.00;99.90;;;;;;5067659;28;20019;-66
2023/01/13 01:44:02;;;;;;;;;;;9.00;99.90;;;;;;5067481;28;19912;-66
2023/01/13 01:46:34;;;;;;;;;;;9.00;99.90;;;;;;5058083;28;20592;-66
2023/01/13 01:49:02;;;;;;;;;;;9.00;99.90;;;;;;5039397;28;19909;-67
2023/01/13 01:51:30;;;;;;;;;;;9.00;99.90;;;;;;5047450;28;19920;-66
2023/01/13 01:53:57;;;;;;;;;;;9.00;99.90;;;;;;5044391;28;19919;-67
2023/01/13 01:56:22;;;;;;;;;;;9.00;99.90;;;;;;5062821;28;20633;-66
2023/01/13 01:58:50;;;;;;;;;;;9.00;99.90;;;;;;5067344;28;19908;-66
2023/01/13 02:01:15;;;;;;;;;;;9.00;99.90;;;;;;5067035;28;20525;-66
2023/01/13 02:03:43;;;;;;;;;;;9.00;99.90;;;;;;5067619;28;19916;-67
2023/01/13 02:06:09;;;;;;;;;;;9.00;99.90;;;;;;5067417;28;19923;-67
2023/01/13 02:08:36;;;;;;;;;;;8.90;99.90;;;;;;5067321;28;19935;-66
2023/01/13 02:11:02;;;;;;;;;;;8.90;99.90;;;;;;5066856;28;19912;-66
2023/01/13 02:13:27;;;;;;;;;;;9.00;99.90;;;;;;5066694;28;19918;-67
2023/01/13 02:16:01;;;;;;;;;;;8.90;99.90;;;;;;5061169;28;19917;-66
2023/01/13 02:18:45;;;;;;;;;;;8.90;99.90;;;;;;5037770;28;19920;-67
2023/01/13 02:21:29;;;;;;;;;;;8.90;99.90;;;;;;5046885;28;19930;-66
2023/01/13 02:27:02;;;;;;;;;;;8.90;99.90;;;;;;5065859;28;20242;-66
2023/01/13 02:32:20;;;;;;;;;;;8.90;99.90;;;;;;5066839;28;19919;-67
2023/01/13 02:34:54;;;;;;;;;;;8.90;99.90;;;;;;5067013;28;19909;-66
2023/01/13 02:37:27;;;;;;;;;;;8.80;99.90;;;;;;5067105;28;19912;-66
2023/01/13 02:39:58;;;;;;;;;;;8.80;99.90;;;;;;5055212;28;20464;-66
2023/01/13 02:45:22;;;;;;;;;;;8.80;99.90;;;;;;5047296;28;19919;-66
2023/01/13 02:47:49;;;;;;;;;;;8.80;99.90;;;;;;5046982;28;19936;-66
2023/01/13 02:50:17;;;;;;;;;;;8.80;99.90;;;;;;5038686;28;20388;-66
2023/01/13 02:52:49;;;;;;;;;;;8.80;99.90;;;;;;5045097;28;19928;-66
2023/01/13 02:55:16;;;;;;;;;;;8.80;99.90;;;;;;5052663;28;19914;-67
2023/01/13 02:57:43;;;;;;;;;;;8.80;99.90;;;;;;5066654;28;20003;-67
2023/01/13 03:00:10;;;;;;;;;;;8.80;99.90;;;;;;5066620;28;19912;-66
2023/01/13 03:02:35;;;;;;;;;;;8.80;99.90;;;;;;5066442;28;19995;-66
2023/01/13 03:05:01;;;;;;;;;;;8.80;99.90;;;;;;5064394;28;20045;-66
2023/01/13 03:07:26;;;;;;;;;;;8.70;99.90;;;;;;5044343;28;19913;-66
2023/01/13 03:09:58;;;;;;;;;;;8.70;99.90;;;;;;5046410;28;20354;-67
2023/01/13 03:12:37;;;;;;;;;;;8.70;99.90;;;;;;5046685;28;19908;-66
2023/01/13 03:15:06;;;;;;;;;;;8.70;99.90;;;;;;5046735;28;20354;-66
2023/01/13 03:17:37;;;;;;;;;;;8.70;99.90;;;;;;5043795;28;19913;-66
2023/01/13 03:20:08;;;;;;;;;;;8.60;99.90;;;;;;5041184;28;19928;-66
2023/01/13 03:22:33;;;;;;;;;;;8.60;99.90;;;;;;5046462;28;19945;-66
2023/01/13 03:24:58;;;;;;;;;;;8.60;99.90;;;;;;5050397;28;20265;-66
2023/01/13 03:27:34;;;;;;;;;;;8.60;99.90;;;;;;5066515;28;19909;-66
2023/01/13 03:30:06;;;;;;;;;;;8.60;99.90;;;;;;5068530;28;19919;-66
2023/01/13 03:32:38;;;;;;;;;;;8.50;99.90;;;;;;5070206;28;19920;-66
2023/01/13 03:35:08;;;;;;;;;;;8.50;99.90;;;;;;5070424;28;19944;-66
2023/01/13 03:37:38;;;;;;;;;;;8.50;99.90;;;;;;5069968;28;19912;-67
2023/01/13 03:40:09;;;;;;;;;;;8.50;99.90;;;;;;5069806;28;19912;-66
2023/01/13 03:42:36;;;;;;;;;;;8.50;99.90;;;;;;5070117;28;20007;-66
2023/01/13 03:45:08;;;;;;;;;;;8.40;99.90;;;;;;5070277;28;19916;-66
2023/01/13 03:47:43;;;;;;;;;;;8.40;99.90;;;;;;5051020;28;19909;-66
2023/01/13 03:50:09;;;;;;;;;;;8.40;99.90;;;;;;5042530;28;19916;-66
2023/01/13 03:52:41;;;;;;;;;;;8.40;99.90;;;;;;5046799;28;19912;-66
2023/01/13 03:55:06;;;;;;;;;;;8.40;99.90;;;;;;5054624;28;19966;-66
2023/01/13 03:57:34;;;;;;;;;;;8.30;99.90;;;;;;5069807;28;19916;-66
2023/01/13 04:00:02;;;;;;;;;;;8.30;99.90;;;;;;5069743;28;20609;-66
2023/01/13 04:02:42;;;;;;;;;;;8.30;99.90;;;;;;5068979;28;19916;-66
2023/01/13 04:05:08;;;;;;;;;;;8.30;99.90;;;;;;5069119;28;19921;-66
2023/01/13 04:07:37;;;;;;;;;;;8.30;99.90;;;;;;5067953;28;19935;-66
2023/01/13 04:10:05;;;;;;;;;;;8.30;99.90;;;;;;5067720;28;19912;-66
2023/01/13 04:13:01;;;;;;;;;;;8.30;99.90;;;;;;5069422;28;20023;-66
2023/01/13 04:15:28;;;;;;;;;;;8.20;99.90;;;;;;5067273;28;19912;-66
2023/01/13 04:18:00;;;;;;;;;;;8.20;99.90;;;;;;5045942;28;19924;-66
2023/01/13 04:20:25;;;;;;;;;;;8.20;99.90;;;;;;5040558;28;19921;-66
2023/01/13 04:22:51;;;;;;;;;;;8.20;99.90;;;;;;5048874;28;19943;-66
2023/01/13 04:25:16;;;;;;;;;;;8.20;99.90;;;;;;5053595;28;20003;-66
2023/01/13 04:27:42;;;;;;;;;;;8.20;99.90;;;;;;5049045;28;19920;-66
2023/01/13 04:30:07;;;;;;;;;;;8.10;99.90;;;;;;5048939;28;19913;-66
2023/01/13 04:32:33;;;;;;;;;;;8.20;99.90;;;;;;5048827;28;20486;-66
2023/01/13 04:34:58;;;;;;;;;;;8.10;99.90;;;;;;5048966;28;19913;-66
2023/01/13 04:37:24;;;;;;;;;;;8.10;99.90;;;;;;5049128;28;19919;-66
2023/01/13 04:39:49;;;;;;;;;;;8.10;99.90;;;;;;5059838;28;19916;-66
2023/01/13 04:42:15;;;;;;;;;;;8.10;99.90;;;;;;5067769;28;20384;-66
2023/01/13 04:44:40;;;;;;;;;;;8.10;99.90;;;;;;5068986;28;19920;-66
2023/01/13 04:47:06;;;;;;;;;;;8.10;99.90;;;;;;5052959;28;20000;-66
2023/01/13 04:49:32;;;;;;;;;;;8.10;99.90;;;;;;5045805;28;19913;-67
2023/01/13 04:51:57;;;;;;;;;;;8.10;99.90;;;;;;5042912;28;20053;-66
2023/01/13 04:54:22;;;;;;;;;;;8.10;99.90;;;;;;5048916;28;19913;-66
2023/01/13 04:56:48;;;;;;;;;;;8.10;99.90;;;;;;5067655;28;19943;-66
2023/01/13 04:59:14;;;;;;;;;;;8.10;99.90;;;;;;5068831;28;19908;-66
2023/01/13 05:01:39;;;;;;;;;;;8.10;99.90;;;;;;5046591;28;19940;-66
2023/01/13 05:04:05;;;;;;;;;;;8.10;99.90;;;;;;5048429;28;20571;-66
2023/01/13 05:06:31;;;;;;;;;;;8.10;99.90;;;;;;5048607;28;19917;-66
2023/01/13 05:08:56;;;;;;;;;;;8.10;99.90;;;;;;5048277;28;19913;-66
2023/01/13 05:17:02;;;;;;;;;;;8.00;99.90;;;;;;5048534;28;20474;-66
2023/01/13 05:19:28;;;;;;;;;;;8.00;99.90;;;;;;5039774;28;19923;-66
2023/01/13 05:27:22;;;;;;;;;;;8.00;99.90;;;;;;5068170;28;19920;-66
2023/01/13 05:29:47;;;;;;;;;;;8.00;99.90;;;;;;5068161;28;19912;-66
2023/01/13 05:32:13;;;;;;;;;;;8.10;99.90;;;;;;5066644;28;19916;-66
2023/01/13 05:34:38;;;;;;;;;;;8.10;99.90;;;;;;5068398;28;19923;-66
2023/01/13 05:37:06;;;;;;;;;;;8.00;99.90;;;;;;5067948;28;19909;-66
2023/01/13 05:43:18;;;;;;;;;;;8.10;99.90;;;;;;5067489;28;19912;-66
2023/01/13 05:45:01;;;;;;;;;;;8.00;99.90;;;;;;5067839;28;19928;-66
2023/01/13 05:47:27;;;;;;;;;;;8.00;99.90;;;;;;5050185;28;20689;-66
2023/01/13 05:49:52;;;;;;;;;;;8.00;99.90;;;;;;5041573;28;19999;-66
2023/01/13 05:52:18;;;;;;;;;;;8.00;99.90;;;;;;5043163;28;20354;-66
2023/01/13 05:54:43;;;;;;;;;;;8.00;99.90;;;;;;5049206;28;20016;-66
2023/01/13 05:57:09;;;;;;;;;;;8.00;99.90;;;;;;5067426;28;20579;-66
2023/01/13 05:59:34;;;;;;;;;;;8.00;99.90;;;;;;5059833;28;19917;-66
2023/01/13 06:02:00;;;;;;;;;;;8.00;99.90;;;;;;5027487;28;19917;-66
2023/01/13 06:04:25;;;;;;;;;;;8.00;99.90;;;;;;5028746;28;19982;-66
2023/01/13 06:06:50;;;;;;;;;;;8.00;99.90;;;;;;5032198;28;20484;-66
2023/01/13 06:09:16;;;;;;;;;;;8.00;99.90;;;;;;5041615;28;19944;-66
2023/01/13 06:11:41;;;;;;;;;;;8.00;99.90;;;;;;5033122;28;20141;-66
2023/01/13 06:14:07;;;;;;;;;;;8.00;99.90;;;;;;5036191;28;20386;-66
2023/01/13 06:16:32;;;;;;;;;;;8.00;99.90;;;;;;5033780;28;19917;-67
2023/01/13 06:18:58;;;;;;;;;;;7.90;99.90;;;;;;5033453;28;19940;-66
2023/01/13 06:21:23;;;;;;;;;;;7.90;99.90;;;;;;5024513;28;19928;-66
2023/01/13 06:23:49;;;;;;;;;;;7.90;99.90;;;;;;5026120;28;19921;-66
2023/01/13 06:26:16;;;;;;;;;;;8.00;99.90;;;;;;5031768;28;19924;-67
2023/01/13 06:28:41;;;;;;;;;;;8.00;99.90;;;;;;5025775;28;19917;-66
2023/01/13 06:31:07;;;;;;;;;;;7.90;99.90;;;;;;5027270;28;19917;-66
2023/01/13 06:33:35;;;;;;;;;;;7.90;99.90;;;;;;5025843;28;19913;-66
2023/01/13 06:36:04;;;;;;;;;;;7.90;99.90;;;;;;5026003;28;19924;-66
2023/01/13 06:38:32;;;;;;;;;;;7.90;99.90;;;;;;5039747;28;19957;-66
2023/01/13 06:40:57;;;;;;;;;;;7.90;99.90;;;;;;5065649;28;20386;-66
2023/01/13 06:43:23;;;;;;;;;;;7.90;99.90;;;;;;5065217;28;19923;-66
2023/01/13 06:45:50;;;;;;;;;;;7.90;99.90;;;;;;5062328;28;19913;-66
2023/01/13 06:48:17;;;;;;;;;;;7.90;99.90;;;;;;5044806;28;19917;-67
2023/01/13 06:50:42;;;;;;;;;;;7.90;99.90;;;;;;5037128;28;20386;-66
2023/01/13 06:53:08;;;;;;;;;;;7.90;99.90;;;;;;5045709;28;20027;-67
2023/01/13 06:55:33;;;;;;;;;;;7.80;99.90;;;;;;5053940;28;19999;-66
2023/01/13 06:57:59;;;;;;;;;;;7.80;99.90;;;;;;5065737;28;20532;-67
2023/01/13 07:00:25;;;;;;;;;;;7.80;99.90;;;;;;5065601;28;20010;-66
2023/01/13 07:02:50;;;;;;;;;;;7.80;99.90;;;;;;5065392;28;19946;-67
2023/01/13 07:05:17;;;;;;;;;;;7.80;99.90;;;;;;5046992;28;19912;-67
2023/01/13 07:07:42;;;;;;;;;;;7.80;99.90;;;;;;5049330;28;19912;-66
2023/01/13 07:10:11;;;;;;;;;;;7.80;99.90;;;;;;5063247;28;19912;-66
2023/01/13 07:15:17;;;;;;;;;;;7.80;99.90;;;;;;5069562;28;20418;-66
2023/01/13 07:15:24;;;;;;;;;;;7.80;99.90;;;;;;5068605;28;19920;-66
2023/01/13 07:17:49;;;;;;;;;;;7.80;99.90;;;;;;5048378;28;20453;-66
2023/01/13 07:20:15;;;;;;;;;;;7.70;99.90;;;;;;5036004;28;19928;-66
2023/01/13 07:22:41;;;;;;;;;;;7.80;99.90;;;;;;5047052;28;19919;-66
2023/01/13 07:25:06;;;;;;;;;;;7.80;99.90;;;;;;5053605;28;19986;-66
2023/01/13 07:27:32;;;;;;;;;;;7.80;99.90;;;;;;5067707;28;19999;-66
2023/01/13 07:29:57;;;;;;;;;;;7.70;99.90;;;;;;5068840;28;20687;-66
2023/01/13 07:32:23;;;;;;;;;;;7.70;99.90;;;;;;5069430;28;19908;-66
2023/01/13 07:34:48;;;;;;;;;;;7.70;99.90;;;;;;5069162;28;20540;-67
2023/01/13 07:37:14;;;;;;;;;;;7.70;99.90;;;;;;5065342;28;19916;-67
2023/01/13 07:39:39;;;;;;;;;;;7.70;99.90;;;;;;5058133;28;20424;-66
2023/01/13 07:44:49;;;;;;;;;;;7.70;99.90;;;;;;5068956;28;19971;-67
2023/01/13 07:47:14;;;;;;;;;;;7.70;99.90;;;;;;5053288;28;19998;-66
2023/01/13 07:49:40;;;;;;;;;;;7.70;99.90;;;;;;5039678;28;19925;-67
2023/01/13 07:52:05;;;;;;;;;;;7.70;99.90;;;;;;5044281;28;20525;-66
2023/01/13 07:54:31;;;;;;;;;;;7.70;99.90;;;;;;5048392;28;19920;-66
2023/01/13 07:56:56;;;;;;;;;;;7.70;99.90;;;;;;5068647;28;19913;-66
2023/01/13 07:59:22;;;;;;;;;;;7.70;99.90;;;;;;5068555;28;20645;-66
2023/01/13 08:01:47;;;;;;;;;;;7.70;99.90;;;;;;5037271;28;19921;-67
2023/01/13 08:04:13;;;;;;;;;;;7.70;99.90;;;;;;5028809;28;19924;-66
2023/01/13 08:06:39;;;;;;;;;;;7.70;99.90;;;;;;5028901;28;20392;-67
2023/01/13 08:09:05;;;;;;;;;;;7.70;99.90;;;;;;5050715;28;19913;-66
2023/01/13 08:11:30;;;;;;;;;;;7.70;99.90;;;;;;5047825;28;19921;-66
2023/01/13 08:13:59;;;;;;;;;;;7.70;99.90;;;;;;5048829;28;19958;-66
2023/01/13 08:16:24;;;;;;;;;;;7.70;99.90;;;;;;5048341;28;19913;-66
2023/01/13 08:18:50;;;;;;;;;;;7.70;99.90;;;;;;5047906;28;19924;-66
2023/01/13 08:21:15;;;;;;;;;;;7.70;99.90;;;;;;5039312;28;19920;-66
2023/01/13 08:23:42;;;;;;;;;;;7.70;99.90;;;;;;5048387;28;20016;-66
2023/01/13 08:26:12;;;;;;;;;;;7.70;99.90;;;;;;5061269;28;19920;-66
2023/01/13 08:28:39;;;;;;;;;;;7.70;99.90;;;;;;5067944;28;20007;-66
2023/01/13 08:31:06;;;;;;;;;;;7.70;99.90;;;;;;5068343;28;19919;-66
2023/01/13 08:33:31;;;;;;;;;;;7.70;99.90;;;;;;5067951;28;19908;-66
2023/01/13 08:35:57;;;;;;;;;;;7.70;99.90;;;;;;5068232;28;19912;-67
2023/01/13 08:38:23;;;;;;;;;;;7.80;99.90;;;;;;5053262;28;19913;-66
2023/01/13 08:40:49;;;;;;;;;;;7.80;99.90;;;;;;5066823;28;20515;-66
2023/01/13 08:43:14;;;;;;;;;;;7.80;99.90;;;;;;5067988;28;19959;-66
2023/01/13 08:45:40;;;;;;;;;;;7.80;99.90;;;;;;5065877;28;19924;-66
2023/01/13 08:48:07;;;;;;;;;;;7.80;99.90;;;;;;5048707;28;19913;-67
2023/01/13 08:50:32;;;;;;;;;;;7.80;99.90;;;;;;5040267;28;19967;-66
2023/01/13 08:52:58;;;;;;;;;;;7.80;99.90;;;;;;5048835;28;19913;-67
2023/01/13 08:55:24;;;;;;;;;;;7.80;99.90;;;;;;5055837;28;19913;-67
2023/01/13 08:57:49;;;;;;;;;;;7.80;99.90;;;;;;5054817;28;19919;-67
2023/01/13 09:00:15;;;;;;;;;;;7.80;99.90;;;;;;5048198;28;20019;-66
2023/01/13 09:02:41;;;;;;;;;;;7.80;99.90;;;;;;5047336;28;19924;-67
2023/01/13 09:05:07;;;;;;;;;;;7.80;99.90;;;;;;5048851;28;19909;-66
2023/01/13 09:07:34;;;;;;;;;;;7.80;99.90;;;;;;5048406;28;19912;-66
2023/01/13 09:10:00;;;;;;;;;;;7.80;99.90;;;;;;5048349;28;19956;-66
2023/01/13 09:15:10;;;;;;;;;;;7.80;99.90;;;;;;5048647;28;19927;-66
2023/01/13 09:17:35;;;;;;;;;;;7.80;99.90;;;;;;5047636;28;19913;-66
2023/01/13 09:20:01;;;;;;;;;;;7.80;99.90;;;;;;5040792;28;19921;-66
2023/01/13 09:22:26;;;;;;;;;;;7.80;99.90;;;;;;5046065;28;20523;-66
2023/01/13 09:24:53;;;;;;;;;;;7.80;99.90;;;;;;5050993;28;19946;-67
2023/01/13 09:27:19;;;;;;;;;;;7.80;99.90;;;;;;5067603;28;19908;-66
2023/01/13 09:29:45;;;;;;;;;;;7.80;99.90;;;;;;5067931;28;19915;-66
2023/01/13 09:32:11;;;;;;;;;;;7.80;99.90;;;;;;5068127;28;20015;-66
2023/01/13 09:37:20;;;;;;;;;;;7.80;99.90;;;;;;5068058;28;19986;-66
2023/01/13 09:39:46;;;;;;;;;;;7.80;99.90;;;;;;5067461;28;19913;-66
2023/01/13 09:45:04;;;;;;;;;;;7.90;99.90;;;;;;5041935;28;20017;-66
2023/01/13 09:47:32;;;;;;;;;;;7.90;99.90;;;;;;5045019;28;19913;-67
2023/01/13 09:50:17;;;;;;;;;;;7.90;99.90;;;;;;5040026;28;19920;-66
2023/01/13 09:52:42;;;;;;;;;;;7.90;99.90;;;;;;5044072;28;19933;-67
2023/01/13 09:55:10;;;;;;;;;;;7.90;99.90;;;;;;5041447;28;20019;-67
2023/01/13 09:57:37;;;;;;;;;;;7.90;99.90;;;;;;5067610;28;19914;-66
2023/01/13 10:00:09;;;;;;;;;;;8.00;99.90;;;;;;5067018;28;19955;-67
2023/01/13 10:02:38;;;;;;;;;;;7.90;99.90;;;;;;5066126;28;19939;-66
2023/01/13 10:05:09;;;;;;;;;;;8.00;99.90;;;;;;5067570;28;20529;-66
2023/01/13 10:07:37;;;;;;;;;;;8.00;99.90;;;;;;5065180;28;19912;-67
2023/01/13 10:10:03;;;;;;;;;;;8.00;99.90;;;;;;5067114;28;20388;-67
2023/01/13 10:15:15;;;;;;;;;;;8.00;99.90;;;;;;5067686;28;19919;-66
2023/01/13 10:17:55;;;;;;;;;;;8.00;99.90;;;;;;5042159;28;19917;-66
2023/01/13 10:20:27;;;;;;;;;;;8.00;99.90;;;;;;5035879;28;19931;-66
2023/01/13 10:22:53;;;;;;;;;;;8.00;99.90;;;;;;5046259;28;20003;-66
2023/01/13 10:25:19;;;;;;;;;;;8.10;99.90;;;;;;5053364;28;20574;-67
2023/01/13 10:27:48;;;;;;;;;;;8.00;99.90;;;;;;5064968;28;19915;-67
2023/01/13 10:30:20;;;;;;;;;;;8.10;99.90;;;;;;5066313;28;19919;-66
2023/01/13 10:32:51;;;;;;;;;;;8.00;99.90;;;;;;5064144;28;20577;-67
2023/01/13 10:35:17;;;;;;;;;;;8.10;99.90;;;;;;5065915;28;19916;-67
2023/01/13 10:37:54;;;;;;;;;;;8.00;99.90;;;;;;5065243;28;19912;-66
2023/01/13 10:40:20;;;;;;;;;;;8.10;99.90;;;;;;5066092;28;19919;-66
2023/01/13 10:42:45;;;;;;;;;;;8.10;99.90;;;;;;5066642;28;19913;-67
2023/01/13 10:45:22;;;;;;;;;;;8.10;99.90;;;;;;5066501;28;19923;-67
2023/01/13 10:48:02;;;;;;;;;;;8.10;99.90;;;;;;5037625;28;20075;-66
2023/01/13 10:50:28;;;;;;;;;;;8.10;99.90;;;;;;5035232;28;19913;-66
2023/01/13 10:52:55;;;;;;;;;;;8.10;99.90;;;;;;5034579;28;19980;-67
2023/01/13 10:55:24;;;;;;;;;;;8.20;99.90;;;;;;5037850;28;19917;-66
2023/01/13 10:57:49;;;;;;;;;;;8.20;99.90;;;;;;5034735;28;20369;-67
2023/01/13 11:00:29;;;;;;;;;;;8.20;99.90;;;;;;5032921;28;19913;-67
2023/01/13 11:03:12;;;;;;;;;;;8.30;99.90;;;;;;5039606;28;20524;-66
2023/01/13 11:05:38;;;;;;;;;;;8.30;99.90;;;;;;5044353;28;19912;-66
2023/01/13 11:08:03;;;;;;;;;;;8.40;99.90;;;;;;5041254;28;19919;-67
2023/01/13 11:10:30;;;;;;;;;;;8.40;99.90;;;;;;5041324;28;19935;-66
2023/01/13 11:13:03;;;;;;;;;;;8.40;99.90;;;;;;5042029;28;19986;-67
2023/01/13 11:15:37;;;;;;;;;;;8.40;99.90;;;;;;5046623;28;19919;-67
2023/01/13 11:18:08;;;;;;;;;;;8.40;99.90;;;;;;5063807;28;19966;-67
2023/01/13 11:20:37;;;;;;;;;;;8.50;99.90;;;;;;5036651;28;20000;-67
2023/01/13 11:23:10;;;;;;;;;;;8.40;99.90;;;;;;5045599;28;20511;-67
2023/01/13 11:25:42;;;;;;;;;;;8.40;99.90;;;;;;5039009;28;19917;-67
2023/01/13 11:28:13;;;;;;;;;;;8.40;99.90;;;;;;5045446;28;20561;-67
2023/01/13 11:30:51;;;;;;;;;;;8.40;99.90;;;;;;5040338;28;19975;-67
2023/01/13 11:33:24;;;;;;;;;;;8.40;99.90;;;;;;5033902;28;19978;-66
2023/01/13 11:36:00;;;;;;;;;;;8.40;99.90;;;;;;5034695;28;20326;-66
2023/01/13 11:38:46;;;;;;;;;;;8.40;99.90;;;;;;5035126;28;19967;-66
2023/01/13 11:41:15;;;;;;;;;;;8.40;99.90;;;;;;5039124;28;20511;-66
2023/01/13 11:43:45;;;;;;;;;;;8.40;99.90;;;;;;5041118;28;19925;-66
2023/01/13 11:46:11;;;;;;;;;;;8.30;99.90;;;;;;5039594;28;19917;-67
2023/01/13 11:48:39;;;;;;;;;;;8.30;99.90;;;;;;5045674;28;19965;-66
2023/01/13 11:51:13;;;;;;;;;;;8.30;99.90;;;;;;5036069;28;19963;-66
2023/01/13 11:53:42;;;;;;;;;;;8.30;99.90;;;;;;5037726;28;19956;-67
2023/01/13 11:56:15;;;;;;;;;;;8.30;99.90;;;;;;5041296;28;20007;-67
2023/01/13 11:59:05;;;;;;;;;;;8.30;99.90;;;;;;5039403;28;19923;-67
2023/01/13 12:01:42;;;;;;;;;;;8.40;99.90;;;;;;5039258;28;19927;-66
2023/01/13 12:04:24;;;;;;;;;;;8.30;99.90;;;;;;5040986;28;20576;-67
2023/01/13 12:06:58;;;;;;;;;;;8.30;99.90;;;;;;5048546;28;19912;-66
2023/01/13 12:09:32;;;;;;;;;;;8.40;99.90;;;;;;5048612;28;19912;-66
2023/01/13 12:12:20;;;;;;;;;;;8.30;99.90;;;;;;5047157;28;20015;-66
2023/01/13 12:14:52;;;;;;;;;;;8.30;99.90;;;;;;5048576;28;19998;-67
2023/01/13 12:17:28;;;;;;;;;;;8.30;99.90;;;;;;5064976;28;20383;-66
2023/01/13 12:19:54;;;;;;;;;;;8.30;99.90;;;;;;5064705;28;19943;-67
2023/01/13 12:22:23;;;;;;;;;;;8.30;99.90;;;;;;5068828;28;20265;-66
2023/01/13 12:24:48;;;;;;;;;;;8.30;99.90;;;;;;5068411;28;20632;-67
2023/01/13 12:27:14;;;;;;;;;;;8.30;99.90;;;;;;5068737;28;19908;-66
2023/01/13 12:29:39;;;;;;;;;;;8.30;99.90;;;;;;5068157;28;19909;-67
2023/01/13 12:32:09;;;;;;;;;;;8.30;99.90;;;;;;5067220;28;19913;-66
2023/01/13 12:34:34;;;;;;;;;;;8.30;99.90;;;;;;5052884;28;19917;-66
2023/01/13 12:37:04;;;;;;;;;;;8.30;99.90;;;;;;5027845;28;19918;-66
2023/01/13 12:39:49;;;;;;;;;;;8.20;99.90;;;;;;5028262;28;20869;-67
2023/01/13 12:45:10;;;;;;;;;;;8.20;99.90;;;;;;5031064;28;19975;-67
2023/01/13 12:47:39;;;;;;;;;;;8.20;99.90;;;;;;5046518;28;19912;-66
2023/01/13 12:50:30;;;;;;;;;;;8.20;99.90;;;;;;5042725;28;19923;-66
2023/01/13 12:52:57;;;;;;;;;;;8.20;99.90;;;;;;5035489;28;20007;-67
2023/01/13 12:55:32;;;;;;;;;;;8.20;99.90;;;;;;5052050;28;19970;-66
2023/01/13 12:57:58;;;;;;;;;;;8.20;99.90;;;;;;5067701;28;20021;-66
2023/01/13 13:00:29;;;;;;;;;;;8.20;99.90;;;;;;5067668;28;19962;-67
2023/01/13 13:03:11;;;;;;;;;;;8.10;99.90;;;;;;5066759;28;19920;-66
2023/01/13 13:05:48;;;;;;;;;;;8.20;99.90;;;;;;5067796;28;19912;-66
2023/01/13 13:08:20;;;;;;;;;;;8.20;99.90;;;;;;5059565;28;19913;-66
2023/01/13 13:13:59;;;;;;;;;;;8.20;99.90;;;;;;5036680;28;19919;-67
2023/01/13 13:16:24;;;;;;;;;;;8.20;99.90;;;;;;5039098;28;20397;-67
2023/01/13 13:19:10;;;;;;;;;;;8.20;99.90;;;;;;5037537;28;19917;-67
2023/01/13 13:21:54;;;;;;;;;;;8.20;99.90;;;;;;5025097;28;19928;-68
2023/01/13 13:24:20;;;;;;;;;;;8.20;99.90;;;;;;5035800;28;19944;-67
2023/01/13 13:26:45;;;;;;;;;;;8.20;99.90;;;;;;5044388;28;19983;-67
2023/01/13 13:29:17;;;;;;;;;;;8.10;99.90;;;;;;5038069;28;19913;-67
2023/01/13 13:32:03;;;;;;;;;;;8.10;99.90;;;;;;5033989;28;21539;-66
2023/01/13 13:34:28;;;;;;;;;;;8.10;99.90;;;;;;5037113;28;19952;-67
2023/01/13 13:37:03;;;;;;;;;;;8.10;99.90;;;;;;5036507;28;20069;-66
2023/01/13 13:48:17;;;;;;;;;;;8.10;99.90;;;;;;5036176;28;19947;-66
2023/01/13 13:50:45;;;;;;;;;;;8.10;99.90;;;;;;5035263;28;20032;-67
2023/01/13 13:53:11;;;;;;;;;;;8.10;99.90;;;;;;5041934;28;19939;-66
2023/01/13 13:55:37;;;;;;;;;;;8.10;99.90;;;;;;5053589;28;20361;-66
2023/01/13 13:58:03;;;;;;;;;;;8.10;99.90;;;;;;5065564;28;19916;-66
2023/01/13 14:00:30;;;;;;;;;;;8.10;99.90;;;;;;5066000;28;20563;-66
2023/01/13 14:03:04;;;;;;;;;;;8.10;99.90;;;;;;5042752;28;19939;-67
2023/01/13 14:05:31;;;;;;;;;;;8.10;99.90;;;;;;5026742;28;20020;-66
2023/01/13 14:07:58;;;;;;;;;;;8.10;99.90;;;;;;5026563;28;20299;-66
2023/01/13 14:10:27;;;;;;;;;;;8.10;99.90;;;;;;5033557;28;19936;-66
2023/01/13 14:12:52;;;;;;;;;;;8.10;99.90;;;;;;5036160;28;19995;-66
2023/01/13 14:15:34;;;;;;;;;;;8.10;99.90;;;;;;5036369;28;19988;-67
2023/01/13 14:18:01;;;;;;;;;;;8.10;99.90;;;;;;5037514;28;20433;-66
2023/01/13 14:20:28;;;;;;;;;;;8.10;99.90;;;;;;5026537;28;19921;-66
2023/01/13 14:22:54;;;;;;;;;;;8.00;99.90;;;;;;5031757;28;20074;-67
2023/01/13 14:25:44;;;;;;;;;;;8.00;99.90;;;;;;5036259;28;19988;-66
2023/01/13 14:28:20;;;;;;;;;;;8.00;99.90;;;;;;5043041;28;19920;-66
2023/01/13 14:30:46;;;;;;;;;;;8.00;99.90;;;;;;5035521;28;19917;-66
2023/01/13 14:33:14;;;;;;;;;;;8.00;99.90;;;;;;5035477;28;20274;-66
2023/01/13 14:35:59;;;;;;;;;;;8.00;99.90;;;;;;5037294;28;19916;-66
2023/01/13 14:38:25;;;;;;;;;;;8.00;99.90;;;;;;5035276;28;19912;-66
2023/01/13 14:40:50;;;;;;;;;;;8.00;99.90;;;;;;5038034;28;19917;-67
2023/01/13 14:43:18;;;;;;;;;;;8.00;99.90;;;;;;5035261;28;19991;-66
2023/01/13 14:45:53;;;;;;;;;;;8.00;99.90;;;;;;5033204;28;19920;-67
2023/01/13 14:48:19;;;;;;;;;;;8.00;99.90;;;;;;5047653;28;19935;-66
2023/01/13 14:50:45;;;;;;;;;;;8.00;99.90;;;;;;5042016;28;20592;-66
2023/01/13 14:53:25;;;;;;;;;;;8.00;99.90;;;;;;5026627;28;19917;-66
2023/01/13 14:55:50;;;;;;;;;;;8.00;99.90;;;;;;5048487;28;19957;-67
2023/01/13 14:58:16;;;;;;;;;;;8.00;99.90;;;;;;5066645;28;19912;-66
2023/01/13 15:00:41;;;;;;;;;;;8.00;99.90;;;;;;5066620;28;19948;-66
2023/01/13 15:03:07;;;;;;;;;;;8.00;99.90;;;;;;5066627;28;19916;-66
2023/01/13 15:05:37;;;;;;;;;;;8.00;99.90;;;;;;5066822;28;19912;-66
2023/01/13 15:08:03;;;;;;;;;;;8.00;99.90;;;;;;5066519;28;19908;-66
2023/01/13 15:10:33;;;;;;;;;;;8.00;99.90;;;;;;5066593;28;20483;-66
2023/01/13 15:13:00;;;;;;;;;;;7.90;99.90;;;;;;5059956;28;19947;-66
2023/01/13 15:15:34;;;;;;;;;;;7.90;99.90;;;;;;5036949;28;20575;-66
2023/01/13 15:18:19;;;;;;;;;;;8.00;99.90;;;;;;5032865;28;19913;-66
2023/01/13 15:20:45;;;;;;;;;;;7.90;99.90;;;;;;5034657;28;20547;-66
2023/01/13 15:23:10;;;;;;;;;;;7.90;99.90;;;;;;5035955;28;20007;-66
2023/01/13 15:25:41;;;;;;;;;;;7.90;99.90;;;;;;5038596;28;19909;-66
2023/01/13 15:28:09;;;;;;;;;;;7.90;99.90;;;;;;5038429;28;19993;-66
2023/01/13 15:30:35;;;;;;;;;;;7.90;99.90;;;;;;5038099;28;20008;-66
2023/01/13 15:33:00;;;;;;;;;;;7.90;99.90;;;;;;5039085;28;20008;-66